ACA690 CYYZ-CYYT
Flight info
| Callsign | ACA690 |
|---|---|
| Flight time | N/A |
| Altitude | 37000 |
| Route | VERDO7 LORKA Q907 MIVAD AVALN5 |
| Aircraft | B38M/M-SDE1FGHILORVWXY/HB1 |
Departure
| Time | N/A |
|---|---|
| Airport | Toronto Pearson International Airport (CYYZ) |
Arrival
| Time | 2026-05-05 00:47 |
|---|---|
| Airport | St. John's International Airport (CYYT) |
| Time | Latitude | Longitude | Altitude | Speed | Heading |
|---|---|---|---|---|---|
| 2026-05-05 00:08 | 47.56773 | -59.20099 | 36629 ft | 498 kts | 88° |
| 2026-05-05 00:08 | 47.56814 | -59.19157 | 36646 ft | 498 kts | 88° |
| 2026-05-05 00:09 | 47.57257 | -59.08958 | 36626 ft | 498 kts | 88° |
| 2026-05-05 00:09 | 47.57773 | -58.96854 | 36636 ft | 498 kts | 88° |
| 2026-05-05 00:10 | 47.58616 | -58.76387 | 36631 ft | 498 kts | 88° |
| 2026-05-05 00:10 | 47.59429 | -58.55915 | 36635 ft | 499 kts | 89° |
| 2026-05-05 00:11 | 47.60189 | -58.35372 | 36637 ft | 499 kts | 89° |
| 2026-05-05 00:11 | 47.60937 | -58.14851 | 36630 ft | 500 kts | 89° |
| 2026-05-05 00:12 | 47.61649 | -57.94263 | 36632 ft | 500 kts | 89° |
| 2026-05-05 00:12 | 47.62294 | -57.73703 | 36609 ft | 499 kts | 90° |
| 2026-05-05 00:13 | 47.62927 | -57.53076 | 36619 ft | 501 kts | 90° |
| 2026-05-05 00:13 | 47.63526 | -57.32458 | 36621 ft | 501 kts | 90° |
| 2026-05-05 00:14 | 47.64069 | -57.11775 | 36636 ft | 503 kts | 91° |
| 2026-05-05 00:14 | 47.64587 | -56.91055 | 36608 ft | 503 kts | 90° |
| 2026-05-05 00:15 | 47.65084 | -56.70296 | 36548 ft | 503 kts | 91° |
| 2026-05-05 00:15 | 47.65521 | -56.49505 | 36535 ft | 505 kts | 91° |
| 2026-05-05 00:16 | 47.65824 | -56.34385 | 36530 ft | 503 kts | 91° |
| 2026-05-05 00:16 | 47.66031 | -56.24058 | 36527 ft | 503 kts | 90° |
| 2026-05-05 00:17 | 47.66632 | -56.05366 | 36490 ft | 505 kts | 90° |
| 2026-05-05 00:17 | 47.66952 | -55.94934 | 36505 ft | 505 kts | 90° |
| 2026-05-05 00:18 | 47.67255 | -55.84512 | 36473 ft | 504 kts | 90° |
| 2026-05-05 00:18 | 47.67402 | -55.79380 | 35981 ft | 495 kts | 91° |
| 2026-05-05 00:18 | 47.67544 | -55.74309 | 35207 ft | 491 kts | 91° |
| 2026-05-05 00:18 | 47.67682 | -55.69277 | 34545 ft | 484 kts | 91° |
| 2026-05-05 00:19 | 47.67816 | -55.64331 | 34046 ft | 477 kts | 91° |
| 2026-05-05 00:19 | 47.67947 | -55.59440 | 33646 ft | 474 kts | 91° |
| 2026-05-05 00:19 | 47.68076 | -55.54556 | 33124 ft | 472 kts | 91° |
| 2026-05-05 00:19 | 47.68202 | -55.49691 | 32522 ft | 472 kts | 91° |
| 2026-05-05 00:20 | 47.68326 | -55.44827 | 31988 ft | 470 kts | 91° |
| 2026-05-05 00:20 | 47.68447 | -55.39996 | 31497 ft | 467 kts | 91° |
| 2026-05-05 00:20 | 47.68565 | -55.35184 | 31050 ft | 465 kts | 91° |
| 2026-05-05 00:20 | 47.68681 | -55.30392 | 30528 ft | 464 kts | 91° |
| 2026-05-05 00:21 | 47.68793 | -55.25676 | 30016 ft | 463 kts | 91° |
| 2026-05-05 00:21 | 47.68906 | -55.20847 | 29452 ft | 459 kts | 91° |
| 2026-05-05 00:21 | 47.69014 | -55.16165 | 28870 ft | 449 kts | 91° |
| 2026-05-05 00:21 | 47.69115 | -55.11664 | 28453 ft | 436 kts | 91° |
| 2026-05-05 00:22 | 47.69214 | -55.07165 | 28013 ft | 427 kts | 91° |
| 2026-05-05 00:22 | 47.69310 | -55.02771 | 27538 ft | 425 kts | 91° |
| 2026-05-05 00:22 | 47.69403 | -54.98444 | 27089 ft | 424 kts | 91° |
| 2026-05-05 00:22 | 47.69495 | -54.94080 | 26656 ft | 423 kts | 91° |
| 2026-05-05 00:23 | 47.69584 | -54.89730 | 26217 ft | 421 kts | 91° |
| 2026-05-05 00:23 | 47.69672 | -54.85396 | 25775 ft | 420 kts | 91° |
| 2026-05-05 00:23 | 47.69758 | -54.81061 | 25324 ft | 419 kts | 91° |
| 2026-05-05 00:23 | 47.69842 | -54.76744 | 24890 ft | 418 kts | 91° |
| 2026-05-05 00:24 | 47.69925 | -54.72425 | 24460 ft | 418 kts | 91° |
| 2026-05-05 00:24 | 47.70006 | -54.68119 | 24026 ft | 418 kts | 91° |
| 2026-05-05 00:24 | 47.70085 | -54.63803 | 23608 ft | 417 kts | 91° |
| 2026-05-05 00:24 | 47.70162 | -54.59499 | 23152 ft | 417 kts | 91° |
| 2026-05-05 00:25 | 47.70238 | -54.55199 | 22661 ft | 416 kts | 91° |
| 2026-05-05 00:25 | 47.70312 | -54.50918 | 22229 ft | 414 kts | 91° |
| 2026-05-05 00:25 | 47.70384 | -54.46650 | 21817 ft | 412 kts | 91° |
| 2026-05-05 00:25 | 47.70454 | -54.42399 | 21398 ft | 410 kts | 91° |
| 2026-05-05 00:26 | 47.70522 | -54.38175 | 20991 ft | 409 kts | 91° |
| 2026-05-05 00:26 | 47.70589 | -54.33965 | 20572 ft | 407 kts | 91° |
| 2026-05-05 00:26 | 47.70653 | -54.29772 | 20160 ft | 406 kts | 91° |
| 2026-05-05 00:26 | 47.70716 | -54.25596 | 19744 ft | 405 kts | 91° |
| 2026-05-05 00:27 | 47.70777 | -54.21420 | 19338 ft | 403 kts | 91° |
| 2026-05-05 00:27 | 47.70836 | -54.17313 | 18939 ft | 402 kts | 90° |
| 2026-05-05 00:27 | 47.70894 | -54.13175 | 18533 ft | 401 kts | 90° |
| 2026-05-05 00:27 | 47.70950 | -54.09039 | 18113 ft | 401 kts | 90° |
| 2026-05-05 00:28 | 47.71005 | -54.04895 | 17680 ft | 400 kts | 90° |
| 2026-05-05 00:28 | 47.71058 | -54.00773 | 17251 ft | 398 kts | 90° |
| 2026-05-05 00:28 | 47.71109 | -53.96683 | 16974 ft | 392 kts | 91° |
| 2026-05-05 00:28 | 47.71158 | -53.92688 | 16751 ft | 385 kts | 91° |
| 2026-05-05 00:29 | 47.71204 | -53.88723 | 16380 ft | 383 kts | 91° |
| 2026-05-05 00:29 | 47.71250 | -53.84769 | 15996 ft | 381 kts | 91° |
| 2026-05-05 00:29 | 47.71293 | -53.80843 | 15607 ft | 380 kts | 91° |
| 2026-05-05 00:29 | 47.71336 | -53.76933 | 15220 ft | 379 kts | 91° |
| 2026-05-05 00:30 | 47.71377 | -53.73025 | 14837 ft | 378 kts | 91° |
| 2026-05-05 00:30 | 47.71416 | -53.69122 | 14436 ft | 378 kts | 91° |
| 2026-05-05 00:30 | 47.71454 | -53.65220 | 14060 ft | 377 kts | 91° |
| 2026-05-05 00:30 | 47.71491 | -53.61326 | 13671 ft | 377 kts | 91° |
| 2026-05-05 00:31 | 47.71527 | -53.57436 | 13262 ft | 377 kts | 91° |
| 2026-05-05 00:31 | 47.71561 | -53.53536 | 12836 ft | 377 kts | 92° |
| 2026-05-05 00:31 | 47.71593 | -53.49654 | 12432 ft | 375 kts | 92° |
| 2026-05-05 00:31 | 47.71625 | -53.45783 | 12036 ft | 374 kts | 92° |
| 2026-05-05 00:32 | 47.71654 | -53.41974 | 11663 ft | 373 kts | 92° |
| 2026-05-05 00:32 | 47.71683 | -53.38132 | 11271 ft | 372 kts | 92° |
| 2026-05-05 00:32 | 47.71710 | -53.34299 | 10871 ft | 368 kts | 92° |
| 2026-05-05 00:32 | 47.71735 | -53.30554 | 10488 ft | 358 kts | 93° |
| 2026-05-05 00:33 | 47.71759 | -53.26914 | 10214 ft | 348 kts | 93° |
| 2026-05-05 00:33 | 47.71781 | -53.23388 | 10063 ft | 333 kts | 93° |
| 2026-05-05 00:33 | 47.71801 | -53.20021 | 9875 ft | 320 kts | 94° |
| 2026-05-05 00:33 | 47.71818 | -53.16723 | 9565 ft | 321 kts | 94° |
| 2026-05-05 00:34 | 47.71836 | -53.13376 | 9160 ft | 327 kts | 94° |
| 2026-05-05 00:34 | 47.71853 | -53.09979 | 8758 ft | 330 kts | 94° |
| 2026-05-05 00:34 | 47.71869 | -53.06570 | 8399 ft | 330 kts | 93° |
| 2026-05-05 00:34 | 47.71885 | -53.03208 | 8059 ft | 330 kts | 93° |
| 2026-05-05 00:35 | 47.71898 | -52.99799 | 7712 ft | 330 kts | 93° |
| 2026-05-05 00:35 | 47.71911 | -52.96391 | 7356 ft | 330 kts | 93° |
| 2026-05-05 00:35 | 47.71923 | -52.92984 | 7019 ft | 331 kts | 93° |
| 2026-05-05 00:35 | 47.71933 | -52.89565 | 6664 ft | 331 kts | 93° |
| 2026-05-05 00:36 | 47.71944 | -52.86134 | 6311 ft | 332 kts | 92° |
| 2026-05-05 00:36 | 47.71952 | -52.82710 | 5954 ft | 333 kts | 92° |
| 2026-05-05 00:36 | 47.71960 | -52.79257 | 5570 ft | 335 kts | 92° |
| 2026-05-05 00:36 | 47.71966 | -52.75787 | 5169 ft | 336 kts | 92° |
| 2026-05-05 00:37 | 47.71973 | -52.72335 | 4804 ft | 332 kts | 93° |
| 2026-05-05 00:37 | 47.71979 | -52.68948 | 4441 ft | 323 kts | 93° |
| 2026-05-05 00:37 | 47.71981 | -52.65662 | 4129 ft | 315 kts | 93° |
| 2026-05-05 00:37 | 47.71984 | -52.62451 | 3976 ft | 308 kts | 93° |
| 2026-05-05 00:38 | 47.71985 | -52.59311 | 3838 ft | 301 kts | 94° |
| 2026-05-05 00:38 | 47.71986 | -52.56240 | 3679 ft | 294 kts | 94° |
| 2026-05-05 00:38 | 47.71985 | -52.53226 | 3487 ft | 290 kts | 94° |
| 2026-05-05 00:38 | 47.71990 | -52.50205 | 3036 ft | 296 kts | 91° |
| 2026-05-05 00:39 | 47.71941 | -52.47230 | 2991 ft | 276 kts | 110° |
| 2026-05-05 00:39 | 47.71202 | -52.44801 | 2963 ft | 244 kts | 143° |
| 2026-05-05 00:39 | 47.69965 | -52.43384 | 3018 ft | 219 kts | 170° |
| 2026-05-05 00:39 | 47.68579 | -52.42491 | 3037 ft | 217 kts | 173° |
| 2026-05-05 00:40 | 47.67184 | -52.41643 | 3041 ft | 217 kts | 173° |
| 2026-05-05 00:40 | 47.65794 | -52.41175 | 2997 ft | 189 kts | 201° |
| 2026-05-05 00:40 | 47.64700 | -52.41847 | 3000 ft | 163 kts | 229° |
| 2026-05-05 00:40 | 47.63982 | -52.42997 | 3016 ft | 143 kts | 246° |
| 2026-05-05 00:41 | 47.63856 | -52.44407 | 2995 ft | 138 kts | 265° |
| 2026-05-05 00:41 | 47.63827 | -52.45833 | 3040 ft | 138 kts | 262° |
| 2026-05-05 00:41 | 47.63772 | -52.47255 | 3032 ft | 136 kts | 262° |
| 2026-05-05 00:41 | 47.63719 | -52.48559 | 3031 ft | 121 kts | 262° |
| 2026-05-05 00:42 | 47.63664 | -52.49778 | 3000 ft | 117 kts | 261° |
| 2026-05-05 00:42 | 47.63610 | -52.50972 | 2993 ft | 118 kts | 261° |
| 2026-05-05 00:42 | 47.63554 | -52.52186 | 2999 ft | 118 kts | 261° |
| 2026-05-05 00:42 | 47.63497 | -52.53399 | 2999 ft | 118 kts | 262° |
| 2026-05-05 00:43 | 47.63440 | -52.54619 | 2903 ft | 119 kts | 261° |
| 2026-05-05 00:43 | 47.63382 | -52.55837 | 2779 ft | 118 kts | 261° |
| 2026-05-05 00:43 | 47.63324 | -52.57047 | 2631 ft | 118 kts | 261° |
| 2026-05-05 00:43 | 47.63266 | -52.58265 | 2487 ft | 119 kts | 261° |
| 2026-05-05 00:44 | 47.63207 | -52.59496 | 2339 ft | 120 kts | 260° |
| 2026-05-05 00:44 | 47.63148 | -52.60724 | 2201 ft | 119 kts | 260° |
| 2026-05-05 00:44 | 47.63090 | -52.61947 | 2061 ft | 120 kts | 260° |
| 2026-05-05 00:44 | 47.63031 | -52.63174 | 1878 ft | 116 kts | 259° |
| 2026-05-05 00:45 | 47.62980 | -52.64290 | 1714 ft | 104 kts | 258° |
| 2026-05-05 00:45 | 47.62928 | -52.65343 | 1571 ft | 102 kts | 257° |
| 2026-05-05 00:45 | 47.62879 | -52.66396 | 1477 ft | 102 kts | 256° |
| 2026-05-05 00:45 | 47.62827 | -52.67428 | 1320 ft | 102 kts | 257° |
| 2026-05-05 00:46 | 47.62773 | -52.68524 | 1018 ft | 108 kts | 258° |
| 2026-05-05 00:46 | 47.62728 | -52.69538 | 1405 ft | 92 kts | 257° |
| 2026-05-05 00:46 | 47.62684 | -52.70585 | 1513 ft | 108 kts | 258° |
| 2026-05-05 00:46 | 47.62668 | -52.71723 | 1052 ft | 107 kts | 257° |
| 2026-05-05 00:47 | 47.62576 | -52.72816 | 761 ft | 108 kts | 259° |
| 2026-05-05 00:47 | 47.62513 | -52.73913 | 543 ft | 106 kts | 261° |
| 2026-05-05 00:47 | 47.62459 | -52.74934 | 489 ft | 84 kts | 258° |
| 2026-05-05 00:47 | 47.62411 | -52.75189 | 483 ft | 7 kts | 290° |
| 2026-05-05 00:48 | 47.62435 | -52.75213 | 487 ft | 2 kts | 19° |
| 2026-05-05 00:48 | 47.62456 | -52.75190 | 486 ft | 5 kts | 50° |
| 2026-05-05 00:48 | 47.62465 | -52.75116 | 484 ft | 12 kts | 86° |
| 2026-05-05 00:48 | 47.62430 | -52.74977 | 483 ft | 16 kts | 137° |
| 2026-05-05 00:49 | 47.62343 | -52.74868 | 488 ft | 17 kts | 140° |
| 2026-05-05 00:49 | 47.62251 | -52.74753 | 486 ft | 19 kts | 140° |
| 2026-05-05 00:49 | 47.62148 | -52.74620 | 487 ft | 20 kts | 139° |
| 2026-05-05 00:49 | 47.62032 | -52.74471 | 481 ft | 24 kts | 139° |
| 2026-05-05 00:50 | 47.61903 | -52.74308 | 481 ft | 26 kts | 140° |
| 2026-05-05 00:50 | 47.61773 | -52.74140 | 480 ft | 23 kts | 139° |
| 2026-05-05 00:50 | 47.61668 | -52.74096 | 480 ft | 17 kts | 220° |
| 2026-05-05 00:50 | 47.61596 | -52.74219 | 480 ft | 15 kts | 228° |
| 2026-05-05 00:51 | 47.61528 | -52.74328 | 478 ft | 11 kts | 220° |
| 2026-05-05 00:51 | 47.61458 | -52.74365 | 478 ft | 11 kts | 206° |
| 2026-05-05 00:51 | 47.61426 | -52.74388 | 477 ft | 0 kts | 204° |